createdAt,value
2018-12-10T00:00:20.939Z,5.00
2018-12-10T00:02:50.179Z,4.90
2018-12-10T00:05:17.442Z,4.90
2018-12-10T00:07:44.684Z,4.90
2018-12-10T00:10:11.848Z,4.90
2018-12-10T00:12:39.145Z,4.90
2018-12-10T00:15:06.340Z,4.90
2018-12-10T00:17:33.625Z,4.90
2018-12-10T00:20:00.825Z,4.90
2018-12-10T00:22:28.063Z,4.80
2018-12-10T00:25:05.766Z,4.90
2018-12-10T00:27:33.003Z,4.90
2018-12-10T00:30:14.702Z,4.90
2018-12-10T00:32:42.058Z,4.90
2018-12-10T00:35:09.378Z,4.90
2018-12-10T00:37:36.580Z,4.90
2018-12-10T00:40:04.456Z,4.90
2018-12-10T00:42:31.644Z,4.90
2018-12-10T00:44:58.887Z,5.00
2018-12-10T00:47:26.053Z,5.00
2018-12-10T00:50:03.871Z,5.00
2018-12-10T00:52:31.052Z,5.00
2018-12-10T00:55:02.028Z,5.10
2018-12-10T00:57:29.241Z,5.00
2018-12-10T01:00:01.113Z,5.00
2018-12-10T01:02:28.344Z,5.00
2018-12-10T01:04:59.020Z,5.00
2018-12-10T01:07:26.263Z,5.00
2018-12-10T01:09:57.961Z,4.90
2018-12-10T01:12:25.138Z,4.90
2018-12-10T01:14:52.448Z,4.90
2018-12-10T01:17:19.629Z,4.80
2018-12-10T01:19:46.902Z,4.80
2018-12-10T01:22:14.154Z,4.80
2018-12-10T01:24:41.339Z,4.80
2018-12-10T01:27:10.559Z,4.80
2018-12-10T01:29:37.716Z,4.80
2018-12-10T01:32:07.030Z,4.80
2018-12-10T01:34:34.198Z,4.80
2018-12-10T01:37:03.466Z,4.80
2018-12-10T01:39:30.631Z,4.70
2018-12-10T01:41:57.806Z,4.80
2018-12-10T01:44:25.007Z,4.70
2018-12-10T01:46:52.263Z,4.70
2018-12-10T01:49:19.458Z,4.60
2018-12-10T01:51:52.630Z,4.70
2018-12-10T01:54:19.816Z,4.60
2018-12-10T01:56:47.048Z,4.60
2018-12-10T01:59:14.298Z,4.50
2018-12-10T02:01:41.565Z,4.50
2018-12-10T02:04:08.739Z,4.60
2018-12-10T02:06:37.937Z,4.60
2018-12-10T02:09:05.341Z,4.60
2018-12-10T02:11:33.562Z,4.60
2018-12-10T02:14:00.757Z,4.60
2018-12-10T02:16:30.121Z,4.60
2018-12-10T02:18:57.311Z,4.60
2018-12-10T02:21:25.553Z,4.60
2018-12-10T02:23:52.773Z,4.60
2018-12-10T02:26:20.026Z,4.50
2018-12-10T02:28:52.923Z,4.50
2018-12-10T02:31:20.181Z,4.50
2018-12-10T02:33:47.406Z,4.40
2018-12-10T02:36:21.407Z,4.50
2018-12-10T02:38:48.602Z,4.50
2018-12-10T02:41:15.848Z,4.50
2018-12-10T02:43:43.069Z,4.50
2018-12-10T02:46:10.341Z,4.50
2018-12-10T02:48:37.521Z,4.60
2018-12-10T02:51:05.089Z,4.60
2018-12-10T02:53:32.315Z,4.70
2018-12-10T02:55:59.645Z,4.70
2018-12-10T02:58:26.836Z,4.60
2018-12-10T03:00:54.120Z,4.60
2018-12-10T03:03:21.303Z,4.50
2018-12-10T03:05:49.494Z,4.50
2018-12-10T03:08:16.679Z,4.50
2018-12-10T03:10:44.957Z,4.50
2018-12-10T03:13:12.144Z,4.50
2018-12-10T03:15:39.434Z,4.50
2018-12-10T03:18:06.606Z,4.50
2018-12-10T03:20:33.849Z,4.50
2018-12-10T03:23:01.082Z,4.50
2018-12-10T03:25:28.270Z,4.60
2018-12-10T03:27:56.537Z,4.50
2018-12-10T03:30:23.710Z,4.50
2018-12-10T03:32:57.650Z,4.50
2018-12-10T03:35:24.859Z,4.50
2018-12-10T03:37:52.044Z,4.50
2018-12-10T03:40:19.246Z,4.40
2018-12-10T03:42:53.623Z,4.40
2018-12-10T03:45:20.856Z,4.40
2018-12-10T03:47:48.128Z,4.30
2018-12-10T03:50:15.358Z,4.30
2018-12-10T03:52:42.567Z,4.30
2018-12-10T03:55:09.765Z,4.20
2018-12-10T03:57:43.467Z,4.20
2018-12-10T04:00:10.674Z,4.10
2018-12-10T04:02:38.034Z,4.10
2018-12-10T04:05:05.204Z,4.10
2018-12-10T04:07:33.389Z,4.10
2018-12-10T04:10:00.609Z,4.10
2018-12-10T04:12:27.816Z,4.10
2018-12-10T04:14:55.050Z,4.10
2018-12-10T04:17:30.282Z,4.10
2018-12-10T04:19:57.521Z,4.10
2018-12-10T04:22:31.334Z,4.10
2018-12-10T04:24:58.742Z,4.10
2018-12-10T04:27:25.973Z,4.10
2018-12-10T04:29:53.382Z,4.10
2018-12-10T04:32:20.695Z,4.10
2018-12-10T04:34:47.901Z,4.00
2018-12-10T04:37:16.160Z,4.00
2018-12-10T04:39:43.362Z,4.00
2018-12-10T04:42:13.762Z,4.00
2018-12-10T04:44:40.964Z,3.90
2018-12-10T04:47:08.169Z,3.90
2018-12-10T04:49:35.395Z,3.80
2018-12-10T04:52:02.584Z,3.90
2018-12-10T04:54:29.768Z,3.90
2018-12-10T04:56:57.033Z,3.90
2018-12-10T04:59:24.237Z,3.90
2018-12-10T05:01:51.497Z,3.80
2018-12-10T05:04:18.705Z,3.80
2018-12-10T05:06:47.996Z,3.80
2018-12-10T05:09:15.205Z,3.80
2018-12-10T05:11:42.456Z,3.90
2018-12-10T05:14:09.700Z,3.80
2018-12-10T05:16:36.965Z,3.80
2018-12-10T05:19:04.173Z,3.80
2018-12-10T05:21:34.423Z,3.90
2018-12-10T05:24:01.659Z,3.90
2018-12-10T05:26:28.883Z,3.90
2018-12-10T05:28:56.200Z,3.90
2018-12-10T05:31:23.398Z,3.90
2018-12-10T05:33:57.187Z,3.90
2018-12-10T05:36:24.367Z,3.90
2018-12-10T05:38:51.576Z,4.00
2018-12-10T05:41:18.825Z,4.00
2018-12-10T05:43:46.018Z,4.00
2018-12-10T05:46:13.223Z,4.00
2018-12-10T05:48:40.481Z,4.00
2018-12-10T05:51:13.539Z,4.00
2018-12-10T05:53:40.736Z,4.10
2018-12-10T05:56:11.860Z,4.10
2018-12-10T05:58:39.058Z,4.10
2018-12-10T06:01:06.366Z,4.20
2018-12-10T06:03:33.697Z,4.20
2018-12-10T06:06:00.948Z,4.20
2018-12-10T06:08:28.149Z,4.10
2018-12-10T06:10:56.380Z,4.00
2018-12-10T06:13:23.689Z,3.90
2018-12-10T06:15:58.615Z,3.90
2018-12-10T06:18:25.854Z,3.90
2018-12-10T06:21:01.764Z,3.80
2018-12-10T06:23:35.231Z,3.80
2018-12-10T06:26:02.447Z,3.90
2018-12-10T06:28:33.649Z,3.90
2018-12-10T06:31:00.855Z,3.80
2018-12-10T06:33:40.979Z,3.80
2018-12-10T06:36:08.290Z,3.80
2018-12-10T06:38:35.569Z,3.80
2018-12-10T06:41:02.753Z,3.80
2018-12-10T06:43:31.170Z,3.80
2018-12-10T06:45:58.359Z,3.80
2018-12-10T06:48:25.677Z,3.80
2018-12-10T06:50:52.906Z,3.80
2018-12-10T06:53:24.031Z,3.80
2018-12-10T06:55:51.265Z,3.90
2018-12-10T06:58:21.953Z,3.90
2018-12-10T07:00:49.193Z,3.90
2018-12-10T07:03:16.527Z,3.90
2018-12-10T07:05:43.731Z,3.90
2018-12-10T07:08:10.955Z,3.90
2018-12-10T07:10:38.192Z,3.90
2018-12-10T07:13:06.493Z,3.90
2018-12-10T07:15:33.721Z,3.80
2018-12-10T07:18:08.765Z,3.80
2018-12-10T07:20:36.009Z,3.80
2018-12-10T07:23:09.783Z,3.80
2018-12-10T07:25:37.016Z,3.70
2018-12-10T07:28:23.578Z,3.70
2018-12-10T07:30:50.804Z,3.70
2018-12-10T07:33:18.165Z,3.60
2018-12-10T07:35:45.372Z,3.60
2018-12-10T07:38:13.218Z,3.70
2018-12-10T07:40:40.425Z,3.70
2018-12-10T07:43:13.963Z,3.70
2018-12-10T07:45:41.279Z,3.70
2018-12-10T07:48:08.594Z,3.70
2018-12-10T07:50:35.808Z,3.70
2018-12-10T07:53:03.155Z,3.70
2018-12-10T07:55:30.352Z,3.70
2018-12-10T07:57:57.640Z,3.70
2018-12-10T08:00:24.823Z,3.80
2018-12-10T08:02:53.194Z,3.80
2018-12-10T08:05:20.372Z,3.70
2018-12-10T08:07:47.647Z,3.70
2018-12-10T08:10:15.020Z,3.70
2018-12-10T08:12:47.246Z,3.70
2018-12-10T08:15:14.475Z,3.70
2018-12-10T08:17:41.732Z,3.70
2018-12-10T08:20:08.930Z,3.70
2018-12-10T08:22:43.084Z,3.80
2018-12-10T08:25:13.971Z,3.70
2018-12-10T08:27:41.184Z,3.80
2018-12-10T08:30:08.730Z,3.80
2018-12-10T08:32:35.916Z,3.90
2018-12-10T08:35:03.156Z,3.90
2018-12-10T08:37:30.394Z,4.00
2018-12-10T08:39:57.651Z,4.00
2018-12-10T08:42:24.859Z,4.00
2018-12-10T08:44:58.023Z,4.00
2018-12-10T08:47:25.246Z,4.10
2018-12-10T08:49:52.502Z,4.10
2018-12-10T08:52:19.724Z,4.10
2018-12-10T08:54:55.866Z,4.20
2018-12-10T08:57:23.089Z,4.20
2018-12-10T08:59:50.322Z,4.20
2018-12-10T09:02:17.541Z,4.20
2018-12-10T09:04:44.850Z,4.10
2018-12-10T09:07:12.088Z,4.10
2018-12-10T09:09:39.377Z,4.10
2018-12-10T09:12:06.607Z,4.20
2018-12-10T09:14:37.433Z,4.30
2018-12-10T09:17:05.042Z,4.30
2018-12-10T09:19:36.372Z,4.30
2018-12-10T09:22:03.720Z,4.30
2018-12-10T09:24:30.968Z,4.40
2018-12-10T09:26:59.360Z,4.50
2018-12-10T09:29:26.580Z,4.60
2018-12-10T09:31:53.821Z,4.60
2018-12-10T09:34:21.048Z,4.60
2018-12-10T09:36:48.433Z,4.60
2018-12-10T09:39:15.603Z,4.60
2018-12-10T09:41:42.860Z,4.60
2018-12-10T09:44:10.103Z,4.50
2018-12-10T09:46:43.678Z,4.50
2018-12-10T09:49:10.892Z,4.50
2018-12-10T09:51:42.968Z,4.50
2018-12-10T09:54:10.447Z,4.60
2018-12-10T09:56:37.750Z,4.60
2018-12-10T09:59:04.937Z,4.70
2018-12-10T10:01:32.239Z,4.80
2018-12-10T10:03:59.573Z,4.90
2018-12-10T10:06:26.837Z,4.90
2018-12-10T10:08:54.034Z,4.80
2018-12-10T10:11:21.327Z,4.70
2018-12-10T10:13:48.505Z,4.70
2018-12-10T10:16:15.734Z,4.80
2018-12-10T10:18:42.950Z,4.90
2018-12-10T10:21:11.488Z,5.00
2018-12-10T10:23:39.044Z,5.00
2018-12-10T10:26:06.225Z,5.10
2018-12-10T10:28:37.257Z,5.00
2018-12-10T10:31:04.464Z,5.00
2018-12-10T10:33:32.462Z,4.90
2018-12-10T10:36:00.004Z,4.90
2018-12-10T10:38:27.341Z,4.80
2018-12-10T10:40:54.504Z,4.70
2018-12-10T10:43:21.748Z,4.60
2018-12-10T10:45:49.129Z,4.60
2018-12-10T10:48:17.337Z,4.60
2018-12-10T10:50:44.536Z,4.60
2018-12-10T10:53:11.816Z,4.70
2018-12-10T10:55:39.026Z,4.80
2018-12-10T10:58:07.304Z,4.90
2018-12-10T11:00:40.348Z,4.90
2018-12-10T11:03:10.558Z,4.90
2018-12-10T11:05:37.812Z,4.90
2018-12-10T11:08:05.034Z,4.90
2018-12-10T11:10:32.239Z,4.90
2018-12-10T11:12:59.493Z,4.90
2018-12-10T11:15:26.798Z,5.00
2018-12-10T11:17:54.003Z,5.00
2018-12-10T11:20:21.172Z,5.10
2018-12-10T11:22:48.458Z,5.10
2018-12-10T11:25:19.332Z,5.10
2018-12-10T11:27:46.536Z,5.20
2018-12-10T11:30:13.781Z,5.30
2018-12-10T11:32:41.164Z,5.30
2018-12-10T11:35:08.471Z,5.30
2018-12-10T11:37:35.677Z,5.40
2018-12-10T11:40:10.447Z,5.50
2018-12-10T11:42:37.653Z,5.60
2018-12-10T11:45:05.360Z,5.70
2018-12-10T11:47:32.565Z,5.70
2018-12-10T11:49:59.763Z,5.80
2018-12-10T11:52:26.975Z,6.00
2018-12-10T11:54:54.308Z,6.00
2018-12-10T11:57:21.535Z,5.90
2018-12-10T11:59:48.778Z,5.80
2018-12-10T12:02:15.946Z,5.70
2018-12-10T12:04:46.718Z,5.60
2018-12-10T12:07:13.899Z,5.50
2018-12-10T12:09:41.142Z,5.50
2018-12-10T12:12:08.359Z,5.40
2018-12-10T12:14:35.536Z,5.50
2018-12-10T12:17:02.832Z,5.60
2018-12-10T12:19:30.053Z,5.80
2018-12-10T12:21:57.249Z,5.90
2018-12-10T12:24:24.463Z,5.90
2018-12-10T12:26:51.697Z,5.90
2018-12-10T12:29:19.137Z,5.80
2018-12-10T12:31:46.322Z,5.70
2018-12-10T12:34:13.588Z,5.50
2018-12-10T12:36:40.809Z,5.50
2018-12-10T12:39:11.192Z,5.50
2018-12-10T12:41:38.364Z,5.50
2018-12-10T12:44:11.903Z,5.50
2018-12-10T12:46:39.120Z,5.70
2018-12-10T12:49:06.536Z,6.00
2018-12-10T12:51:33.777Z,6.20
2018-12-10T12:54:01.004Z,6.40
2018-12-10T12:56:28.293Z,6.40
2018-12-10T12:58:55.515Z,6.50
2018-12-10T13:01:22.711Z,6.50
2018-12-10T13:03:51.107Z,6.60
2018-12-10T13:06:18.299Z,6.60
2018-12-10T13:08:45.584Z,6.60
2018-12-10T13:11:12.769Z,6.60
2018-12-10T13:13:43.677Z,6.40
2018-12-10T13:16:10.855Z,6.10
2018-12-10T13:18:38.057Z,6.00
2018-12-10T13:21:05.259Z,6.00
2018-12-10T13:23:33.464Z,6.00
2018-12-10T13:26:05.162Z,6.00
2018-12-10T13:28:32.371Z,6.00
2018-12-10T13:31:06.903Z,5.90
2018-12-10T13:33:34.077Z,5.90
2018-12-10T13:36:08.025Z,5.90
2018-12-10T13:38:36.904Z,5.80
2018-12-10T13:41:04.411Z,5.80
2018-12-10T13:43:31.610Z,5.80
2018-12-10T13:46:02.215Z,5.80
2018-12-10T13:48:29.585Z,5.90
2018-12-10T13:50:56.754Z,5.90
2018-12-10T13:53:23.935Z,6.00
2018-12-10T13:55:51.192Z,6.00
2018-12-10T13:58:18.408Z,6.00
2018-12-10T14:00:51.085Z,6.00
2018-12-10T14:03:18.324Z,6.00
2018-12-10T14:05:49.298Z,5.90
2018-12-10T14:08:16.501Z,5.90
2018-12-10T14:10:43.748Z,5.90
2018-12-10T14:13:10.937Z,5.80
2018-12-10T14:15:38.141Z,5.80
2018-12-10T14:18:05.350Z,5.80
2018-12-10T14:20:36.394Z,5.80
2018-12-10T14:23:03.646Z,5.80
2018-12-10T14:25:30.867Z,5.70
2018-12-10T14:28:01.736Z,5.60
2018-12-10T14:30:29.094Z,5.60
2018-12-10T14:32:56.363Z,5.40
2018-12-10T14:35:23.568Z,5.40
2018-12-10T14:37:50.779Z,5.30
2018-12-10T14:40:18.016Z,5.30
2018-12-10T14:42:50.034Z,5.20
2018-12-10T14:45:17.538Z,5.20
2018-12-10T14:47:46.815Z,5.20
2018-12-10T14:50:14.022Z,5.20
2018-12-10T14:52:41.374Z,5.20
2018-12-10T14:55:08.575Z,5.10
2018-12-10T14:57:39.510Z,5.10
2018-12-10T15:00:08.147Z,5.10
2018-12-10T15:02:35.342Z,5.10
2018-12-10T15:05:03.021Z,5.10
2018-12-10T15:07:30.252Z,5.10
2018-12-10T15:09:57.606Z,5.10
2018-12-10T15:12:24.826Z,5.00
2018-12-10T15:14:52.033Z,5.00
2018-12-10T15:17:19.403Z,4.90
2018-12-10T15:19:46.586Z,4.80
2018-12-10T15:22:13.771Z,4.80
2018-12-10T15:24:41.046Z,4.80
2018-12-10T15:27:08.217Z,4.80
2018-12-10T15:29:35.471Z,4.80
2018-12-10T15:32:02.669Z,4.80
2018-12-10T15:34:29.857Z,4.80
2018-12-10T15:36:57.126Z,4.80
2018-12-10T15:39:24.468Z,4.70
2018-12-10T15:41:51.672Z,4.70
2018-12-10T15:44:25.830Z,4.70
2018-12-10T15:46:53.018Z,4.70
2018-12-10T15:49:27.879Z,4.70
2018-12-10T15:51:55.058Z,4.70
2018-12-10T15:54:39.458Z,4.70
2018-12-10T15:57:06.772Z,4.70
2018-12-10T15:59:37.111Z,4.70
2018-12-10T16:02:04.312Z,4.70
2018-12-10T16:04:33.270Z,4.80
2018-12-10T16:07:00.494Z,4.80
2018-12-10T16:09:27.830Z,4.80
2018-12-10T16:11:55.062Z,4.80
2018-12-10T16:17:08.587Z,4.80
2018-12-10T16:19:35.836Z,4.70
2018-12-10T16:22:03.205Z,4.70
2018-12-10T16:24:30.645Z,4.60
2018-12-10T16:26:57.848Z,4.60
2018-12-10T16:29:26.124Z,4.50
2018-12-10T16:31:53.345Z,4.40
2018-12-10T16:34:20.625Z,4.40
2018-12-10T16:36:48.281Z,4.40
2018-12-10T16:39:28.365Z,4.30
2018-12-10T16:41:55.677Z,4.40
2018-12-10T16:44:38.140Z,4.40
2018-12-10T16:47:05.345Z,4.40
2018-12-10T16:49:32.580Z,4.40
2018-12-10T16:51:59.815Z,4.40
2018-12-10T16:54:29.183Z,4.40
2018-12-10T16:56:56.720Z,4.40
2018-12-10T16:59:23.971Z,4.40
2018-12-10T17:01:51.300Z,4.30
2018-12-10T17:04:18.791Z,4.20
2018-12-10T17:06:45.978Z,4.20
2018-12-10T17:09:17.167Z,4.20
2018-12-10T17:11:44.623Z,4.20
2018-12-10T17:14:12.124Z,4.20
2018-12-10T17:16:39.551Z,4.10
2018-12-10T17:19:06.799Z,4.20
2018-12-10T17:21:34.038Z,4.10
2018-12-10T17:24:01.314Z,4.10
2018-12-10T17:26:32.448Z,4.10
2018-12-10T17:28:59.655Z,4.10
2018-12-10T17:31:27.074Z,4.10
2018-12-10T17:33:54.466Z,4.10
2018-12-10T17:36:21.766Z,4.10
2018-12-10T17:38:49.384Z,4.10
2018-12-10T17:41:23.033Z,4.10
2018-12-10T17:43:50.203Z,4.10
2018-12-10T17:46:24.203Z,4.20
2018-12-10T17:48:51.378Z,4.20
2018-12-10T17:51:18.676Z,4.20
2018-12-10T17:53:46.104Z,4.10
2018-12-10T17:56:14.417Z,4.10
2018-12-10T17:58:41.778Z,4.10
2018-12-10T18:01:16.257Z,4.10
2018-12-10T18:03:43.512Z,4.00
2018-12-10T18:06:21.311Z,4.00
2018-12-10T18:08:48.545Z,4.00
2018-12-10T18:11:26.710Z,4.00
2018-12-10T18:13:53.921Z,4.00
2018-12-10T18:16:21.201Z,4.00
2018-12-10T18:18:48.558Z,4.00
2018-12-10T18:21:15.850Z,4.00
2018-12-10T18:23:43.052Z,4.00
2018-12-10T18:26:10.362Z,4.00
2018-12-10T18:28:37.669Z,4.10
2018-12-10T18:31:04.855Z,4.10
2018-12-10T18:33:34.296Z,4.10
2018-12-10T18:36:01.742Z,4.10
2018-12-10T18:38:29.007Z,4.10
2018-12-10T18:40:56.219Z,4.10
2018-12-10T18:46:20.440Z,4.00
2018-12-10T18:48:47.718Z,4.00
2018-12-10T18:51:15.055Z,4.00
2018-12-10T18:53:46.117Z,4.10
2018-12-10T18:56:13.299Z,4.00
2018-12-10T18:58:41.088Z,4.10
2018-12-10T19:01:10.286Z,4.10
2018-12-10T19:03:37.499Z,4.00
2018-12-10T19:06:04.695Z,4.10
2018-12-10T19:08:31.892Z,4.10
2018-12-10T19:10:59.085Z,4.10
2018-12-10T19:13:26.318Z,4.10
2018-12-10T19:15:54.171Z,4.20
2018-12-10T19:18:21.423Z,4.20
2018-12-10T19:20:48.634Z,4.20
2018-12-10T19:23:15.887Z,4.20
2018-12-10T19:25:44.537Z,4.20
2018-12-10T19:28:11.727Z,4.20
2018-12-10T19:30:38.935Z,4.20
2018-12-10T19:33:06.631Z,4.10
2018-12-10T19:35:34.968Z,4.10
2018-12-10T19:38:02.159Z,4.20
2018-12-10T19:40:29.508Z,4.20
2018-12-10T19:42:56.800Z,4.20
2018-12-10T19:45:24.044Z,4.30
2018-12-10T19:47:51.395Z,4.30
2018-12-10T19:50:22.760Z,4.40
2018-12-10T19:52:49.934Z,4.40
2018-12-10T19:55:17.263Z,4.50
2018-12-10T19:57:44.491Z,4.50
2018-12-10T20:00:11.756Z,4.50
2018-12-10T20:02:40.035Z,4.50
2018-12-10T20:05:07.419Z,4.50
2018-12-10T20:07:34.683Z,4.50
2018-12-10T20:10:01.876Z,4.50
2018-12-10T20:12:29.129Z,4.50
2018-12-10T20:14:56.473Z,4.50
2018-12-10T20:17:23.824Z,4.50
2018-12-10T20:19:54.229Z,4.50
2018-12-10T20:22:21.409Z,4.40
2018-12-10T20:24:48.672Z,4.40
2018-12-10T20:27:16.018Z,4.30
2018-12-10T20:29:43.288Z,4.30
2018-12-10T20:32:13.663Z,4.30
2018-12-10T20:34:41.521Z,4.40
2018-12-10T20:37:09.654Z,4.30
2018-12-10T20:39:36.856Z,4.30
2018-12-10T20:42:06.476Z,4.30
2018-12-10T20:44:34.638Z,4.20
2018-12-10T20:47:01.902Z,4.20
2018-12-10T20:49:29.157Z,4.20
2018-12-10T20:51:56.499Z,4.20
2018-12-10T20:54:23.748Z,4.20
2018-12-10T20:56:51.928Z,4.20
2018-12-10T20:59:19.270Z,4.20
2018-12-10T21:01:46.438Z,4.20
2018-12-10T21:04:13.601Z,4.20
2018-12-10T21:06:40.888Z,4.30
2018-12-10T21:09:08.123Z,4.20
2018-12-10T21:11:35.361Z,4.20
2018-12-10T21:14:02.566Z,4.20
2018-12-10T21:16:29.765Z,4.20
2018-12-10T21:18:58.007Z,4.20
2018-12-10T21:21:32.270Z,4.20
2018-12-10T21:23:59.630Z,4.30
2018-12-10T21:26:26.835Z,4.30
2018-12-10T21:28:54.019Z,4.30
2018-12-10T21:31:27.355Z,4.30
2018-12-10T21:33:54.553Z,4.40
2018-12-10T21:36:21.774Z,4.40
2018-12-10T21:38:49.010Z,4.40
2018-12-10T21:41:18.222Z,4.50
2018-12-10T21:43:45.441Z,4.50
2018-12-10T21:46:19.263Z,4.50
2018-12-10T21:48:46.493Z,4.50
2018-12-10T21:51:13.788Z,4.50
2018-12-10T21:53:41.110Z,4.40
2018-12-10T21:56:11.682Z,4.40
2018-12-10T21:58:38.886Z,4.30
2018-12-10T22:01:14.365Z,4.30
2018-12-10T22:03:41.568Z,4.30
2018-12-10T22:06:12.690Z,4.30
2018-12-10T22:08:39.876Z,4.30
2018-12-10T22:11:07.146Z,4.20
2018-12-10T22:13:34.396Z,4.30
2018-12-10T22:16:10.381Z,4.30
2018-12-10T22:18:37.601Z,4.30
2018-12-10T22:21:08.567Z,4.30
2018-12-10T22:23:35.769Z,4.40
2018-12-10T22:26:14.541Z,4.40
2018-12-10T22:28:41.756Z,4.40
2018-12-10T22:31:16.683Z,4.40
2018-12-10T22:33:44.532Z,4.40
2018-12-10T22:36:13.077Z,4.30
2018-12-10T22:38:40.359Z,4.30
2018-12-10T22:41:08.904Z,4.30
2018-12-10T22:43:36.336Z,4.30
2018-12-10T22:46:04.662Z,4.30
2018-12-10T22:48:33.122Z,4.30
2018-12-10T22:51:00.605Z,4.30
2018-12-10T22:53:27.859Z,4.30
2018-12-10T22:55:59.586Z,4.30
2018-12-10T22:58:26.754Z,4.30
2018-12-10T23:00:55.170Z,4.30
2018-12-10T23:03:22.376Z,4.30
2018-12-10T23:05:51.782Z,4.30
2018-12-10T23:08:19.209Z,4.30
2018-12-10T23:10:46.466Z,4.30
2018-12-10T23:13:13.661Z,4.30
2018-12-10T23:15:41.013Z,4.30
2018-12-10T23:18:08.212Z,4.30
2018-12-10T23:20:36.547Z,4.20
2018-12-10T23:23:03.745Z,4.20
2018-12-10T23:25:31.047Z,4.20
2018-12-10T23:28:02.048Z,4.20
2018-12-10T23:30:29.249Z,4.10
2018-12-10T23:32:56.586Z,4.20
2018-12-10T23:35:23.774Z,4.20
2018-12-10T23:37:51.146Z,4.20
2018-12-10T23:40:20.741Z,4.20
2018-12-10T23:46:04.258Z,4.10
2018-12-10T23:48:31.753Z,4.20
2018-12-10T23:50:59.200Z,4.20
2018-12-10T23:53:26.509Z,4.20
2018-12-10T23:55:53.867Z,4.20
2018-12-10T23:58:21.311Z,4.20
